Terminal Aerodrome Forecast
Issued by NWS

Home | Current Version | Previous Version | Text Only | Print | Product List | Glossary On
Versions: 1 2 3 4 5 6 7 8 9 10 11 12 13 14 15 16 17 18 19
000
FTUS44 KHGX 272327
TAFCXO
TAF
KCXO 272327Z 2800/2824 09007KT P6SM SCT030 BKN120
      TEMPO 2800/2801 SHRA
     FM280200 VRB04KT P6SM FEW030 BKN120
     FM281300 02004KT P6SM VCSH SCT015 BKN250
     FM281700 03006KT P6SM VCTS BKN035CB OVC100 PROB30 2819/2823
      TSRA BKN035CB=

USA.gov is the U.S. government's official web portal to all federal, state and local government web resources and services.